sensor_id;sensor_type;location;lat;lon;timestamp;P1;durP1;ratioP1;P2;durP2;ratioP2
15317;SDS011;7759;52.528;13.346;2024-03-08T00:00:13;15.73;;;8.03;;
15317;SDS011;7759;52.528;13.346;2024-03-08T00:02:39;14.70;;;7.27;;
15317;SDS011;7759;52.528;13.346;2024-03-08T00:05:06;18.50;;;8.17;;
15317;SDS011;7759;52.528;13.346;2024-03-08T00:07:33;14.00;;;7.63;;
15317;SDS011;7759;52.528;13.346;2024-03-08T00:09:59;14.03;;;7.50;;
15317;SDS011;7759;52.528;13.346;2024-03-08T00:12:25;12.93;;;6.80;;
15317;SDS011;7759;52.528;13.346;2024-03-08T00:14:51;16.20;;;7.77;;
15317;SDS011;7759;52.528;13.346;2024-03-08T00:17:17;14.67;;;7.63;;
15317;SDS011;7759;52.528;13.346;2024-03-08T00:19:43;13.57;;;7.60;;
15317;SDS011;7759;52.528;13.346;2024-03-08T00:22:09;15.73;;;7.77;;
15317;SDS011;7759;52.528;13.346;2024-03-08T00:24:36;18.70;;;9.40;;
15317;SDS011;7759;52.528;13.346;2024-03-08T00:27:02;15.67;;;7.23;;
15317;SDS011;7759;52.528;13.346;2024-03-08T00:29:29;12.93;;;7.00;;
15317;SDS011;7759;52.528;13.346;2024-03-08T00:31:55;13.53;;;6.87;;
15317;SDS011;7759;52.528;13.346;2024-03-08T00:34:22;13.27;;;7.33;;
15317;SDS011;7759;52.528;13.346;2024-03-08T00:36:48;14.87;;;7.80;;
15317;SDS011;7759;52.528;13.346;2024-03-08T00:39:15;18.10;;;8.97;;
15317;SDS011;7759;52.528;13.346;2024-03-08T00:41:41;16.47;;;7.60;;
15317;SDS011;7759;52.528;13.346;2024-03-08T00:44:07;20.10;;;9.43;;
15317;SDS011;7759;52.528;13.346;2024-03-08T00:46:35;17.43;;;8.03;;
15317;SDS011;7759;52.528;13.346;2024-03-08T00:49:01;12.27;;;7.20;;
15317;SDS011;7759;52.528;13.346;2024-03-08T00:51:26;14.97;;;8.30;;
15317;SDS011;7759;52.528;13.346;2024-03-08T00:53:52;15.10;;;8.80;;
15317;SDS011;7759;52.528;13.346;2024-03-08T00:56:18;17.23;;;8.27;;
15317;SDS011;7759;52.528;13.346;2024-03-08T00:58:44;16.53;;;8.30;;
15317;SDS011;7759;52.528;13.346;2024-03-08T01:01:10;15.93;;;7.83;;
15317;SDS011;7759;52.528;13.346;2024-03-08T01:03:36;13.17;;;7.57;;
15317;SDS011;7759;52.528;13.346;2024-03-08T01:06:02;13.43;;;8.07;;
15317;SDS011;7759;52.528;13.346;2024-03-08T01:08:28;17.57;;;8.57;;
15317;SDS011;7759;52.528;13.346;2024-03-08T01:10:54;15.27;;;7.63;;
15317;SDS011;7759;52.528;13.346;2024-03-08T01:13:20;18.73;;;8.87;;
15317;SDS011;7759;52.528;13.346;2024-03-08T01:15:46;20.10;;;8.90;;
15317;SDS011;7759;52.528;13.346;2024-03-08T01:18:12;12.60;;;7.57;;
15317;SDS011;7759;52.528;13.346;2024-03-08T01:20:38;17.70;;;9.43;;
15317;SDS011;7759;52.528;13.346;2024-03-08T01:23:06;15.97;;;8.37;;
15317;SDS011;7759;52.528;13.346;2024-03-08T01:25:32;17.90;;;8.67;;
15317;SDS011;7759;52.528;13.346;2024-03-08T01:27:58;19.77;;;7.97;;
15317;SDS011;7759;52.528;13.346;2024-03-08T01:30:24;14.03;;;7.73;;
15317;SDS011;7759;52.528;13.346;2024-03-08T01:32:50;17.07;;;8.67;;
15317;SDS011;7759;52.528;13.346;2024-03-08T01:35:16;13.80;;;7.93;;
15317;SDS011;7759;52.528;13.346;2024-03-08T01:37:43;13.30;;;7.37;;
15317;SDS011;7759;52.528;13.346;2024-03-08T01:40:09;18.07;;;8.17;;
15317;SDS011;7759;52.528;13.346;2024-03-08T01:42:35;16.60;;;8.50;;
15317;SDS011;7759;52.528;13.346;2024-03-08T01:45:05;16.60;;;8.00;;
15317;SDS011;7759;52.528;13.346;2024-03-08T01:47:31;15.57;;;7.20;;
15317;SDS011;7759;52.528;13.346;2024-03-08T01:49:57;15.73;;;7.40;;
15317;SDS011;7759;52.528;13.346;2024-03-08T01:52:24;15.17;;;8.13;;
15317;SDS011;7759;52.528;13.346;2024-03-08T01:54:51;18.37;;;7.97;;
15317;SDS011;7759;52.528;13.346;2024-03-08T01:57:17;18.80;;;8.77;;
15317;SDS011;7759;52.528;13.346;2024-03-08T01:59:43;12.10;;;6.77;;
15317;SDS011;7759;52.528;13.346;2024-03-08T02:02:09;16.10;;;8.70;;
15317;SDS011;7759;52.528;13.346;2024-03-08T02:04:38;24.03;;;9.73;;
15317;SDS011;7759;52.528;13.346;2024-03-08T02:07:04;17.80;;;8.53;;
15317;SDS011;7759;52.528;13.346;2024-03-08T02:09:30;17.97;;;8.57;;
15317;SDS011;7759;52.528;13.346;2024-03-08T02:11:56;13.67;;;7.03;;
15317;SDS011;7759;52.528;13.346;2024-03-08T02:14:23;15.53;;;8.67;;
15317;SDS011;7759;52.528;13.346;2024-03-08T02:16:49;15.07;;;7.17;;
15317;SDS011;7759;52.528;13.346;2024-03-08T02:19:16;17.17;;;8.67;;
15317;SDS011;7759;52.528;13.346;2024-03-08T02:21:42;19.73;;;9.23;;
15317;SDS011;7759;52.528;13.346;2024-03-08T02:24:08;14.20;;;7.87;;
15317;SDS011;7759;52.528;13.346;2024-03-08T02:26:35;18.13;;;8.90;;
15317;SDS011;7759;52.528;13.346;2024-03-08T02:29:01;15.57;;;7.77;;
15317;SDS011;7759;52.528;13.346;2024-03-08T02:31:27;21.53;;;9.77;;
15317;SDS011;7759;52.528;13.346;2024-03-08T02:33:53;17.40;;;8.07;;
15317;SDS011;7759;52.528;13.346;2024-03-08T02:36:19;14.50;;;7.43;;
15317;SDS011;7759;52.528;13.346;2024-03-08T02:38:45;16.00;;;8.73;;
15317;SDS011;7759;52.528;13.346;2024-03-08T02:41:11;15.90;;;8.63;;
15317;SDS011;7759;52.528;13.346;2024-03-08T02:43:37;21.10;;;10.03;;
15317;SDS011;7759;52.528;13.346;2024-03-08T02:46:03;16.83;;;7.67;;
15317;SDS011;7759;52.528;13.346;2024-03-08T02:48:30;18.87;;;7.73;;
15317;SDS011;7759;52.528;13.346;2024-03-08T02:50:56;14.73;;;7.53;;
15317;SDS011;7759;52.528;13.346;2024-03-08T02:53:22;18.67;;;9.83;;
15317;SDS011;7759;52.528;13.346;2024-03-08T02:55:49;16.07;;;7.97;;
15317;SDS011;7759;52.528;13.346;2024-03-08T02:58:15;19.20;;;9.30;;
15317;SDS011;7759;52.528;13.346;2024-03-08T03:00:41;14.83;;;8.50;;
15317;SDS011;7759;52.528;13.346;2024-03-08T03:03:09;15.73;;;8.03;;
15317;SDS011;7759;52.528;13.346;2024-03-08T03:05:35;15.93;;;8.90;;
15317;SDS011;7759;52.528;13.346;2024-03-08T03:08:00;21.00;;;9.80;;
15317;SDS011;7759;52.528;13.346;2024-03-08T03:10:28;14.07;;;7.40;;
15317;SDS011;7759;52.528;13.346;2024-03-08T03:12:54;19.37;;;8.43;;
15317;SDS011;7759;52.528;13.346;2024-03-08T03:15:20;15.67;;;7.97;;
15317;SDS011;7759;52.528;13.346;2024-03-08T03:17:47;20.07;;;11.47;;
15317;SDS011;7759;52.528;13.346;2024-03-08T03:20:13;20.77;;;9.33;;
15317;SDS011;7759;52.528;13.346;2024-03-08T03:22:40;16.27;;;8.70;;
15317;SDS011;7759;52.528;13.346;2024-03-08T03:25:07;15.37;;;8.93;;
15317;SDS011;7759;52.528;13.346;2024-03-08T03:27:33;15.37;;;8.10;;
15317;SDS011;7759;52.528;13.346;2024-03-08T03:29:59;19.37;;;8.40;;
15317;SDS011;7759;52.528;13.346;2024-03-08T03:32:44;16.43;;;8.00;;
15317;SDS011;7759;52.528;13.346;2024-03-08T03:35:12;15.23;;;7.70;;
15317;SDS011;7759;52.528;13.346;2024-03-08T03:37:38;13.37;;;8.00;;
15317;SDS011;7759;52.528;13.346;2024-03-08T03:40:05;20.03;;;8.23;;
15317;SDS011;7759;52.528;13.346;2024-03-08T03:42:33;16.03;;;8.73;;
15317;SDS011;7759;52.528;13.346;2024-03-08T03:44:59;20.93;;;10.33;;
15317;SDS011;7759;52.528;13.346;2024-03-08T03:47:25;15.83;;;9.00;;
15317;SDS011;7759;52.528;13.346;2024-03-08T03:49:52;16.30;;;7.93;;
15317;SDS011;7759;52.528;13.346;2024-03-08T03:52:19;18.30;;;7.77;;
15317;SDS011;7759;52.528;13.346;2024-03-08T03:54:45;17.73;;;8.87;;
15317;SDS011;7759;52.528;13.346;2024-03-08T03:57:10;22.07;;;10.87;;
15317;SDS011;7759;52.528;13.346;2024-03-08T03:59:37;24.83;;;9.20;;
15317;SDS011;7759;52.528;13.346;2024-03-08T04:02:03;16.93;;;9.20;;
15317;SDS011;7759;52.528;13.346;2024-03-08T04:04:29;15.23;;;8.03;;
15317;SDS011;7759;52.528;13.346;2024-03-08T04:06:55;18.73;;;9.63;;
15317;SDS011;7759;52.528;13.346;2024-03-08T04:09:20;14.33;;;7.40;;
15317;SDS011;7759;52.528;13.346;2024-03-08T04:11:47;18.43;;;9.40;;
15317;SDS011;7759;52.528;13.346;2024-03-08T04:14:13;15.50;;;8.47;;
15317;SDS011;7759;52.528;13.346;2024-03-08T04:16:39;16.37;;;8.23;;
15317;SDS011;7759;52.528;13.346;2024-03-08T04:19:05;24.23;;;10.77;;
15317;SDS011;7759;52.528;13.346;2024-03-08T04:21:31;17.40;;;9.27;;
15317;SDS011;7759;52.528;13.346;2024-03-08T04:23:57;20.73;;;9.60;;
15317;SDS011;7759;52.528;13.346;2024-03-08T04:26:22;26.10;;;10.90;;
15317;SDS011;7759;52.528;13.346;2024-03-08T04:28:48;17.57;;;9.00;;
15317;SDS011;7759;52.528;13.346;2024-03-08T04:31:14;14.77;;;7.97;;
15317;SDS011;7759;52.528;13.346;2024-03-08T04:33:40;17.37;;;8.80;;
15317;SDS011;7759;52.528;13.346;2024-03-08T04:36:06;17.93;;;9.80;;
15317;SDS011;7759;52.528;13.346;2024-03-08T04:38:32;18.90;;;9.70;;
15317;SDS011;7759;52.528;13.346;2024-03-08T04:40:59;17.90;;;9.73;;
15317;SDS011;7759;52.528;13.346;2024-03-08T04:43:26;17.83;;;10.07;;
15317;SDS011;7759;52.528;13.346;2024-03-08T04:45:55;20.10;;;10.13;;
15317;SDS011;7759;52.528;13.346;2024-03-08T04:48:21;15.63;;;8.47;;
15317;SDS011;7759;52.528;13.346;2024-03-08T04:50:47;19.53;;;9.80;;
15317;SDS011;7759;52.528;13.346;2024-03-08T04:53:13;19.63;;;9.10;;
15317;SDS011;7759;52.528;13.346;2024-03-08T04:55:39;16.87;;;8.57;;
15317;SDS011;7759;52.528;13.346;2024-03-08T04:58:05;21.43;;;9.97;;
15317;SDS011;7759;52.528;13.346;2024-03-08T05:00:31;20.63;;;10.57;;
15317;SDS011;7759;52.528;13.346;2024-03-08T05:02:57;16.73;;;9.10;;
15317;SDS011;7759;52.528;13.346;2024-03-08T05:05:23;19.10;;;8.67;;
15317;SDS011;7759;52.528;13.346;2024-03-08T05:07:49;17.20;;;8.90;;
15317;SDS011;7759;52.528;13.346;2024-03-08T05:10:15;15.90;;;8.70;;
15317;SDS011;7759;52.528;13.346;2024-03-08T05:12:42;19.23;;;9.10;;
15317;SDS011;7759;52.528;13.346;2024-03-08T05:15:08;24.47;;;11.40;;
15317;SDS011;7759;52.528;13.346;2024-03-08T05:17:34;17.10;;;9.10;;
15317;SDS011;7759;52.528;13.346;2024-03-08T05:20:00;20.50;;;9.57;;
15317;SDS011;7759;52.528;13.346;2024-03-08T05:22:26;19.30;;;9.17;;
15317;SDS011;7759;52.528;13.346;2024-03-08T05:24:52;21.27;;;9.63;;
15317;SDS011;7759;52.528;13.346;2024-03-08T05:27:18;20.73;;;9.87;;
15317;SDS011;7759;52.528;13.346;2024-03-08T05:29:44;18.23;;;9.00;;
15317;SDS011;7759;52.528;13.346;2024-03-08T05:32:11;17.73;;;9.53;;
15317;SDS011;7759;52.528;13.346;2024-03-08T05:34:37;17.77;;;8.67;;
15317;SDS011;7759;52.528;13.346;2024-03-08T05:37:03;18.87;;;9.03;;
15317;SDS011;7759;52.528;13.346;2024-03-08T05:39:29;22.10;;;9.07;;
15317;SDS011;7759;52.528;13.346;2024-03-08T05:41:55;20.40;;;9.40;;
15317;SDS011;7759;52.528;13.346;2024-03-08T05:44:21;17.47;;;9.33;;
15317;SDS011;7759;52.528;13.346;2024-03-08T05:46:47;23.33;;;12.00;;
15317;SDS011;7759;52.528;13.346;2024-03-08T05:49:13;17.20;;;9.60;;
15317;SDS011;7759;52.528;13.346;2024-03-08T05:51:39;22.67;;;10.07;;
15317;SDS011;7759;52.528;13.346;2024-03-08T05:54:11;16.30;;;8.87;;
15317;SDS011;7759;52.528;13.346;2024-03-08T05:56:37;20.47;;;9.47;;
15317;SDS011;7759;52.528;13.346;2024-03-08T05:59:03;19.37;;;10.40;;
15317;SDS011;7759;52.528;13.346;2024-03-08T06:01:29;18.17;;;9.23;;
15317;SDS011;7759;52.528;13.346;2024-03-08T06:03:56;20.97;;;10.57;;
15317;SDS011;7759;52.528;13.346;2024-03-08T06:06:22;19.17;;;9.00;;
15317;SDS011;7759;52.528;13.346;2024-03-08T06:08:49;18.17;;;8.87;;
15317;SDS011;7759;52.528;13.346;2024-03-08T06:11:15;26.40;;;11.90;;
15317;SDS011;7759;52.528;13.346;2024-03-08T06:13:44;20.50;;;11.33;;
15317;SDS011;7759;52.528;13.346;2024-03-08T06:16:10;25.47;;;11.87;;
15317;SDS011;7759;52.528;13.346;2024-03-08T06:18:37;23.37;;;10.33;;
15317;SDS011;7759;52.528;13.346;2024-03-08T06:21:05;21.83;;;10.87;;
15317;SDS011;7759;52.528;13.346;2024-03-08T06:23:32;23.47;;;11.13;;
15317;SDS011;7759;52.528;13.346;2024-03-08T06:25:58;19.87;;;9.73;;
15317;SDS011;7759;52.528;13.346;2024-03-08T06:28:24;22.37;;;9.63;;
15317;SDS011;7759;52.528;13.346;2024-03-08T06:30:50;19.93;;;10.53;;
15317;SDS011;7759;52.528;13.346;2024-03-08T06:33:16;19.37;;;9.43;;
15317;SDS011;7759;52.528;13.346;2024-03-08T06:35:42;17.83;;;9.67;;
15317;SDS011;7759;52.528;13.346;2024-03-08T06:38:08;23.47;;;9.60;;
15317;SDS011;7759;52.528;13.346;2024-03-08T06:40:34;19.13;;;9.43;;
15317;SDS011;7759;52.528;13.346;2024-03-08T06:43:00;21.20;;;10.53;;
15317;SDS011;7759;52.528;13.346;2024-03-08T06:45:26;22.03;;;10.20;;
15317;SDS011;7759;52.528;13.346;2024-03-08T06:47:53;20.13;;;10.03;;
15317;SDS011;7759;52.528;13.346;2024-03-08T06:50:19;14.83;;;8.37;;
15317;SDS011;7759;52.528;13.346;2024-03-08T06:52:45;22.43;;;10.57;;
15317;SDS011;7759;52.528;13.346;2024-03-08T06:55:15;18.63;;;10.10;;
15317;SDS011;7759;52.528;13.346;2024-03-08T06:57:42;16.50;;;8.67;;
15317;SDS011;7759;52.528;13.346;2024-03-08T07:00:08;22.97;;;9.80;;
15317;SDS011;7759;52.528;13.346;2024-03-08T07:02:36;16.57;;;9.87;;
15317;SDS011;7759;52.528;13.346;2024-03-08T07:05:04;18.93;;;9.93;;
15317;SDS011;7759;52.528;13.346;2024-03-08T07:07:31;23.43;;;11.57;;
15317;SDS011;7759;52.528;13.346;2024-03-08T07:09:58;16.80;;;8.77;;
15317;SDS011;7759;52.528;13.346;2024-03-08T07:12:24;18.20;;;8.93;;
15317;SDS011;7759;52.528;13.346;2024-03-08T07:14:51;19.00;;;9.90;;
15317;SDS011;7759;52.528;13.346;2024-03-08T07:17:17;19.17;;;8.53;;
15317;SDS011;7759;52.528;13.346;2024-03-08T07:19:42;17.67;;;8.57;;
15317;SDS011;7759;52.528;13.346;2024-03-08T07:22:08;24.33;;;10.77;;
15317;SDS011;7759;52.528;13.346;2024-03-08T07:24:35;16.37;;;8.27;;
15317;SDS011;7759;52.528;13.346;2024-03-08T07:27:19;20.07;;;10.17;;
15317;SDS011;7759;52.528;13.346;2024-03-08T07:29:45;17.40;;;8.63;;
15317;SDS011;7759;52.528;13.346;2024-03-08T07:32:11;18.43;;;9.43;;
15317;SDS011;7759;52.528;13.346;2024-03-08T07:34:46;18.63;;;9.97;;
15317;SDS011;7759;52.528;13.346;2024-03-08T07:37:12;19.53;;;9.20;;
15317;SDS011;7759;52.528;13.346;2024-03-08T07:39:38;21.47;;;9.80;;
15317;SDS011;7759;52.528;13.346;2024-03-08T07:42:04;18.10;;;9.10;;
15317;SDS011;7759;52.528;13.346;2024-03-08T07:44:30;21.30;;;9.97;;
15317;SDS011;7759;52.528;13.346;2024-03-08T07:46:57;17.27;;;8.37;;
15317;SDS011;7759;52.528;13.346;2024-03-08T07:49:23;20.57;;;10.23;;
15317;SDS011;7759;52.528;13.346;2024-03-08T07:51:49;22.00;;;9.83;;
15317;SDS011;7759;52.528;13.346;2024-03-08T07:54:16;19.00;;;8.97;;
15317;SDS011;7759;52.528;13.346;2024-03-08T07:56:42;16.57;;;8.47;;
15317;SDS011;7759;52.528;13.346;2024-03-08T07:59:08;19.67;;;9.37;;
15317;SDS011;7759;52.528;13.346;2024-03-08T08:01:36;21.67;;;9.90;;
15317;SDS011;7759;52.528;13.346;2024-03-08T08:04:02;18.60;;;9.57;;
15317;SDS011;7759;52.528;13.346;2024-03-08T08:06:28;21.50;;;10.93;;
15317;SDS011;7759;52.528;13.346;2024-03-08T08:08:58;15.60;;;7.87;;
15317;SDS011;7759;52.528;13.346;2024-03-08T08:11:25;21.90;;;12.67;;
15317;SDS011;7759;52.528;13.346;2024-03-08T08:13:52;23.33;;;12.67;;
15317;SDS011;7759;52.528;13.346;2024-03-08T08:16:19;26.93;;;12.83;;
15317;SDS011;7759;52.528;13.346;2024-03-08T08:18:45;31.23;;;14.57;;
15317;SDS011;7759;52.528;13.346;2024-03-08T08:21:12;29.97;;;15.40;;
15317;SDS011;7759;52.528;13.346;2024-03-08T08:23:38;30.90;;;17.70;;
15317;SDS011;7759;52.528;13.346;2024-03-08T08:26:04;22.90;;;12.73;;
15317;SDS011;7759;52.528;13.346;2024-03-08T08:28:32;36.53;;;18.27;;
15317;SDS011;7759;52.528;13.346;2024-03-08T08:30:58;27.53;;;14.17;;
15317;SDS011;7759;52.528;13.346;2024-03-08T08:33:24;36.97;;;15.97;;
15317;SDS011;7759;52.528;13.346;2024-03-08T08:35:50;28.00;;;15.47;;
15317;SDS011;7759;52.528;13.346;2024-03-08T08:38:18;24.30;;;11.70;;
15317;SDS011;7759;52.528;13.346;2024-03-08T08:40:45;29.43;;;13.57;;
15317;SDS011;7759;52.528;13.346;2024-03-08T08:43:12;27.23;;;14.50;;
15317;SDS011;7759;52.528;13.346;2024-03-08T08:45:37;29.70;;;14.17;;
15317;SDS011;7759;52.528;13.346;2024-03-08T08:48:04;25.60;;;13.80;;
15317;SDS011;7759;52.528;13.346;2024-03-08T08:50:30;25.63;;;12.80;;
15317;SDS011;7759;52.528;13.346;2024-03-08T08:52:57;20.43;;;9.93;;
15317;SDS011;7759;52.528;13.346;2024-03-08T08:55:23;21.93;;;11.37;;
15317;SDS011;7759;52.528;13.346;2024-03-08T08:57:52;23.30;;;10.70;;
15317;SDS011;7759;52.528;13.346;2024-03-08T09:00:21;23.53;;;10.00;;
15317;SDS011;7759;52.528;13.346;2024-03-08T09:02:51;19.53;;;9.63;;
15317;SDS011;7759;52.528;13.346;2024-03-08T09:05:20;20.83;;;10.20;;
15317;SDS011;7759;52.528;13.346;2024-03-08T09:07:46;15.70;;;8.53;;
15317;SDS011;7759;52.528;13.346;2024-03-08T09:10:12;17.07;;;8.57;;
15317;SDS011;7759;52.528;13.346;2024-03-08T09:12:39;19.57;;;10.80;;
15317;SDS011;7759;52.528;13.346;2024-03-08T09:15:05;19.47;;;9.87;;
15317;SDS011;7759;52.528;13.346;2024-03-08T09:17:33;24.80;;;11.37;;
15317;SDS011;7759;52.528;13.346;2024-03-08T09:19:59;20.10;;;8.97;;
15317;SDS011;7759;52.528;13.346;2024-03-08T09:22:25;21.83;;;10.30;;
15317;SDS011;7759;52.528;13.346;2024-03-08T09:24:51;16.20;;;9.67;;
15317;SDS011;7759;52.528;13.346;2024-03-08T09:27:17;20.13;;;9.60;;
15317;SDS011;7759;52.528;13.346;2024-03-08T09:29:43;20.97;;;10.53;;
15317;SDS011;7759;52.528;13.346;2024-03-08T09:32:09;16.87;;;9.93;;
15317;SDS011;7759;52.528;13.346;2024-03-08T09:34:36;20.60;;;11.10;;
15317;SDS011;7759;52.528;13.346;2024-03-08T09:37:02;17.37;;;10.13;;
15317;SDS011;7759;52.528;13.346;2024-03-08T09:39:29;21.17;;;11.50;;
15317;SDS011;7759;52.528;13.346;2024-03-08T09:41:55;19.73;;;10.63;;
15317;SDS011;7759;52.528;13.346;2024-03-08T09:44:21;21.73;;;11.50;;
15317;SDS011;7759;52.528;13.346;2024-03-08T09:46:48;19.77;;;10.10;;
15317;SDS011;7759;52.528;13.346;2024-03-08T09:49:16;20.20;;;9.43;;
15317;SDS011;7759;52.528;13.346;2024-03-08T09:51:42;20.93;;;9.97;;
15317;SDS011;7759;52.528;13.346;2024-03-08T09:54:08;16.60;;;8.50;;
15317;SDS011;7759;52.528;13.346;2024-03-08T09:56:37;22.97;;;10.27;;
15317;SDS011;7759;52.528;13.346;2024-03-08T09:59:06;22.57;;;10.73;;
15317;SDS011;7759;52.528;13.346;2024-03-08T10:01:55;21.97;;;10.17;;
15317;SDS011;7759;52.528;13.346;2024-03-08T10:04:24;24.77;;;10.73;;
15317;SDS011;7759;52.528;13.346;2024-03-08T10:06:51;20.27;;;10.43;;
15317;SDS011;7759;52.528;13.346;2024-03-08T10:09:17;17.33;;;9.70;;
15317;SDS011;7759;52.528;13.346;2024-03-08T10:11:43;16.97;;;9.30;;
15317;SDS011;7759;52.528;13.346;2024-03-08T10:14:09;20.73;;;9.17;;
15317;SDS011;7759;52.528;13.346;2024-03-08T10:16:35;14.23;;;7.87;;
15317;SDS011;7759;52.528;13.346;2024-03-08T10:19:02;25.00;;;12.13;;
15317;SDS011;7759;52.528;13.346;2024-03-08T10:21:28;18.13;;;9.00;;
15317;SDS011;7759;52.528;13.346;2024-03-08T10:23:54;14.70;;;8.57;;
15317;SDS011;7759;52.528;13.346;2024-03-08T10:26:21;18.20;;;9.50;;
15317;SDS011;7759;52.528;13.346;2024-03-08T10:28:48;17.73;;;9.13;;
15317;SDS011;7759;52.528;13.346;2024-03-08T10:31:15;14.13;;;7.77;;
15317;SDS011;7759;52.528;13.346;2024-03-08T10:33:41;21.87;;;9.20;;
15317;SDS011;7759;52.528;13.346;2024-03-08T10:36:07;19.63;;;8.57;;
15317;SDS011;7759;52.528;13.346;2024-03-08T10:38:35;17.07;;;9.00;;
15317;SDS011;7759;52.528;13.346;2024-03-08T10:41:01;17.47;;;9.10;;
15317;SDS011;7759;52.528;13.346;2024-03-08T10:43:29;17.73;;;8.60;;
15317;SDS011;7759;52.528;13.346;2024-03-08T10:46:05;15.40;;;8.27;;
15317;SDS011;7759;52.528;13.346;2024-03-08T10:48:36;18.10;;;8.60;;
15317;SDS011;7759;52.528;13.346;2024-03-08T10:51:06;14.97;;;8.10;;
15317;SDS011;7759;52.528;13.346;2024-03-08T10:53:33;18.23;;;8.93;;
15317;SDS011;7759;52.528;13.346;2024-03-08T10:56:01;13.37;;;7.10;;
15317;SDS011;7759;52.528;13.346;2024-03-08T10:58:27;15.63;;;8.30;;
15317;SDS011;7759;52.528;13.346;2024-03-08T11:00:54;17.40;;;7.33;;
15317;SDS011;7759;52.528;13.346;2024-03-08T11:08:53;18.93;;;8.20;;
15317;SDS011;7759;52.528;13.346;2024-03-08T11:11:23;12.60;;;6.63;;
15317;SDS011;7759;52.528;13.346;2024-03-08T11:13:55;18.50;;;7.53;;
15317;SDS011;7759;52.528;13.346;2024-03-08T11:18:54;14.90;;;8.20;;
15317;SDS011;7759;52.528;13.346;2024-03-08T11:21:19;17.23;;;9.07;;
15317;SDS011;7759;52.528;13.346;2024-03-08T11:23:59;14.67;;;7.47;;
15317;SDS011;7759;52.528;13.346;2024-03-08T11:26:25;11.57;;;6.70;;
15317;SDS011;7759;52.528;13.346;2024-03-08T11:28:51;15.30;;;8.07;;
15317;SDS011;7759;52.528;13.346;2024-03-08T11:33:46;12.93;;;8.03;;
15317;SDS011;7759;52.528;13.346;2024-03-08T11:36:20;14.87;;;7.77;;
15317;SDS011;7759;52.528;13.346;2024-03-08T11:38:47;15.30;;;7.47;;
15317;SDS011;7759;52.528;13.346;2024-03-08T11:41:18;13.00;;;6.73;;
15317;SDS011;7759;52.528;13.346;2024-03-08T11:43:44;14.90;;;6.93;;
15317;SDS011;7759;52.528;13.346;2024-03-08T11:46:10;13.40;;;6.97;;
15317;SDS011;7759;52.528;13.346;2024-03-08T11:48:40;12.00;;;6.93;;
15317;SDS011;7759;52.528;13.346;2024-03-08T11:51:07;15.67;;;7.73;;
15317;SDS011;7759;52.528;13.346;2024-03-08T11:53:32;13.90;;;6.90;;
15317;SDS011;7759;52.528;13.346;2024-03-08T11:56:08;12.53;;;6.87;;
15317;SDS011;7759;52.528;13.346;2024-03-08T11:58:34;12.47;;;6.83;;
15317;SDS011;7759;52.528;13.346;2024-03-08T12:01:07;10.73;;;6.50;;
15317;SDS011;7759;52.528;13.346;2024-03-08T12:03:37;18.40;;;8.23;;
15317;SDS011;7759;52.528;13.346;2024-03-08T12:06:03;13.10;;;7.43;;
15317;SDS011;7759;52.528;13.346;2024-03-08T12:08:32;13.83;;;7.00;;
15317;SDS011;7759;52.528;13.346;2024-03-08T12:10:58;11.53;;;6.43;;
15317;SDS011;7759;52.528;13.346;2024-03-08T12:13:27;12.73;;;6.80;;
15317;SDS011;7759;52.528;13.346;2024-03-08T12:15:55;11.03;;;6.63;;
15317;SDS011;7759;52.528;13.346;2024-03-08T12:18:21;14.57;;;7.20;;
15317;SDS011;7759;52.528;13.346;2024-03-08T12:20:47;12.27;;;7.00;;
15317;SDS011;7759;52.528;13.346;2024-03-08T12:23:15;16.50;;;8.40;;
15317;SDS011;7759;52.528;13.346;2024-03-08T12:25:41;16.30;;;7.30;;
15317;SDS011;7759;52.528;13.346;2024-03-08T12:28:11;16.13;;;8.67;;
15317;SDS011;7759;52.528;13.346;2024-03-08T12:30:47;16.50;;;7.37;;
15317;SDS011;7759;52.528;13.346;2024-03-08T12:33:13;12.10;;;7.57;;
15317;SDS011;7759;52.528;13.346;2024-03-08T12:35:39;11.63;;;6.20;;
15317;SDS011;7759;52.528;13.346;2024-03-08T12:38:07;13.17;;;7.10;;
15317;SDS011;7759;52.528;13.346;2024-03-08T12:40:33;14.57;;;8.07;;
15317;SDS011;7759;52.528;13.346;2024-03-08T12:43:00;15.23;;;7.80;;
15317;SDS011;7759;52.528;13.346;2024-03-08T12:45:26;16.03;;;8.03;;
15317;SDS011;7759;52.528;13.346;2024-03-08T12:47:55;12.47;;;7.47;;
15317;SDS011;7759;52.528;13.346;2024-03-08T12:50:21;12.90;;;7.43;;
15317;SDS011;7759;52.528;13.346;2024-03-08T12:52:47;13.77;;;8.37;;
15317;SDS011;7759;52.528;13.346;2024-03-08T12:55:13;12.40;;;7.57;;
15317;SDS011;7759;52.528;13.346;2024-03-08T12:57:41;12.87;;;7.13;;
15317;SDS011;7759;52.528;13.346;2024-03-08T13:00:07;14.53;;;6.60;;
15317;SDS011;7759;52.528;13.346;2024-03-08T13:02:38;11.63;;;6.60;;
15317;SDS011;7759;52.528;13.346;2024-03-08T13:05:04;13.97;;;7.67;;
15317;SDS011;7759;52.528;13.346;2024-03-08T13:07:30;11.87;;;6.93;;
15317;SDS011;7759;52.528;13.346;2024-03-08T13:09:56;13.97;;;7.73;;
15317;SDS011;7759;52.528;13.346;2024-03-08T13:12:24;16.07;;;7.60;;
15317;SDS011;7759;52.528;13.346;2024-03-08T13:14:50;11.37;;;6.70;;
15317;SDS011;7759;52.528;13.346;2024-03-08T13:17:16;9.73;;;6.43;;
15317;SDS011;7759;52.528;13.346;2024-03-08T13:19:43;12.97;;;7.77;;
15317;SDS011;7759;52.528;13.346;2024-03-08T13:22:09;12.27;;;5.87;;
15317;SDS011;7759;52.528;13.346;2024-03-08T13:24:38;16.93;;;8.37;;
15317;SDS011;7759;52.528;13.346;2024-03-08T13:27:08;15.40;;;7.93;;
15317;SDS011;7759;52.528;13.346;2024-03-08T13:29:47;13.07;;;7.67;;
15317;SDS011;7759;52.528;13.346;2024-03-08T13:32:13;13.30;;;7.33;;
15317;SDS011;7759;52.528;13.346;2024-03-08T13:34:43;13.50;;;6.97;;
15317;SDS011;7759;52.528;13.346;2024-03-08T13:37:10;9.23;;;5.60;;
15317;SDS011;7759;52.528;13.346;2024-03-08T13:39:36;11.40;;;5.67;;
15317;SDS011;7759;52.528;13.346;2024-03-08T13:42:08;10.37;;;6.07;;
15317;SDS011;7759;52.528;13.346;2024-03-08T13:44:37;13.80;;;7.60;;
15317;SDS011;7759;52.528;13.346;2024-03-08T13:47:03;15.87;;;8.33;;
15317;SDS011;7759;52.528;13.346;2024-03-08T13:49:30;9.70;;;6.20;;
15317;SDS011;7759;52.528;13.346;2024-03-08T13:51:56;16.80;;;8.33;;
15317;SDS011;7759;52.528;13.346;2024-03-08T13:54:24;11.83;;;6.17;;
15317;SDS011;7759;52.528;13.346;2024-03-08T13:56:49;13.60;;;7.00;;
15317;SDS011;7759;52.528;13.346;2024-03-08T13:59:19;16.13;;;8.40;;
15317;SDS011;7759;52.528;13.346;2024-03-08T14:01:47;10.50;;;6.67;;
15317;SDS011;7759;52.528;13.346;2024-03-08T14:04:13;12.37;;;7.20;;
15317;SDS011;7759;52.528;13.346;2024-03-08T14:06:41;10.33;;;6.27;;
15317;SDS011;7759;52.528;13.346;2024-03-08T14:09:09;13.07;;;6.27;;
15317;SDS011;7759;52.528;13.346;2024-03-08T14:11:41;13.23;;;6.53;;
15317;SDS011;7759;52.528;13.346;2024-03-08T14:14:07;10.10;;;5.80;;
15317;SDS011;7759;52.528;13.346;2024-03-08T14:16:34;12.97;;;6.60;;
15317;SDS011;7759;52.528;13.346;2024-03-08T14:19:02;12.23;;;7.03;;
15317;SDS011;7759;52.528;13.346;2024-03-08T14:21:30;12.57;;;6.60;;
15317;SDS011;7759;52.528;13.346;2024-03-08T14:23:56;12.43;;;7.37;;
15317;SDS011;7759;52.528;13.346;2024-03-08T14:26:22;16.40;;;6.87;;
15317;SDS011;7759;52.528;13.346;2024-03-08T14:28:48;10.13;;;6.33;;
15317;SDS011;7759;52.528;13.346;2024-03-08T14:31:19;11.57;;;6.13;;
15317;SDS011;7759;52.528;13.346;2024-03-08T14:33:45;10.80;;;6.23;;
15317;SDS011;7759;52.528;13.346;2024-03-08T14:36:14;13.13;;;5.70;;
15317;SDS011;7759;52.528;13.346;2024-03-08T14:38:41;12.87;;;7.47;;
15317;SDS011;7759;52.528;13.346;2024-03-08T14:41:07;17.03;;;7.33;;